Time;durP1;ratioP1;P1;durP2;ratioP2;P2;SDS_P1;SDS_P2;PMS_P1;PMS_P2;Temp;Humidity;BMP_temperature;BMP_pressure;BME280_temperature;BME280_humidity;BME280_pressure;Samples;Min_cycle;Max_cycle;Signal;HPM_P1;HPM_P2
2024/04/16 00:00:24;;;;;;;;;;;;;;;;;;5621875;25;19930;-71
2024/04/16 00:02:50;;;;;;;;;;;;;;;;;;5622077;25;19956;-71
2024/04/16 00:05:16;;;;;;;;;;;;;;;;;;5622088;25;19930;-71
2024/04/16 00:07:42;;;;;;;;;;;;;;;;;;5621595;25;19926;-71
2024/04/16 00:10:08;;;;;;;;;;;;;;;;;;5588391;25;19926;-71
2024/04/16 00:12:34;;;;;;;;;;;;;;;;;;5622011;25;20259;-71
2024/04/16 00:15:00;;;;;;;;;;;;;;;;;;5587880;25;19926;-72
2024/04/16 00:17:27;;;;;;;;;;;;;;;;;;5621760;25;19926;-71
2024/04/16 00:19:53;;;;;;;;;;;;;;;;;;5621831;25;19926;-72
2024/04/16 00:22:19;;;;;;;;;;;;;;;;;;5587646;25;19927;-71
2024/04/16 00:24:45;;;;;;;;;;;;;;;;;;5621842;25;19938;-71
2024/04/16 00:27:11;;;;;;;;;;;;;;;;;;5621881;25;20366;-71
2024/04/16 00:29:37;;;;;;;;;;;;;;;;;;5621318;25;20331;-71
2024/04/16 00:32:03;;;;;;;;;;;;;;;;;;5621910;25;19926;-71
2024/04/16 00:34:29;;;;;;;;;;;;;;;;;;5587932;25;19933;-71
2024/04/16 00:36:55;;;;;;;;;;;;;;;;;;5621091;25;19926;-71
2024/04/16 00:39:20;;;;;;;;;;;;;;;;;;5588209;25;19934;-72
2024/04/16 00:41:46;;;;;;;;;;;;;;;;;;5621892;25;19950;-71
2024/04/16 00:44:12;;;;;;;;;;;;;;;;;;5621433;25;19934;-71
2024/04/16 00:46:38;;;;;;;;;;;;;;;;;;5588045;25;20370;-71
2024/04/16 00:49:05;;;;;;;;;;;;;;;;;;5605946;25;19938;-71
2024/04/16 00:51:31;;;;;;;;;;;;;;;;;;5571366;25;20327;-71
2024/04/16 00:53:57;;;;;;;;;;;;;;;;;;5605293;25;19933;-71
2024/04/16 00:56:23;;;;;;;;;;;;;;;;;;5605589;25;20258;-71
2024/04/16 00:58:48;;;;;;;;;;;;;;;;;;5604740;25;19985;-71
2024/04/16 01:01:14;;;;;;;;;;;;;;;;;;5605123;25;19938;-71
2024/04/16 01:03:43;;;;;;;;;;;;;;;;;;5571230;25;19927;-71
2024/04/16 01:06:09;;;;;;;;;;;;;;;;;;5605198;25;19933;-72
2024/04/16 01:08:34;;;;;;;;;;;;;;;;;;5571583;25;19927;-72
2024/04/16 01:11:00;;;;;;;;;;;;;;;;;;5571029;25;19994;-72
2024/04/16 01:13:26;;;;;;;;;;;;;;;;;;5571466;25;19926;-72
2024/04/16 01:15:52;;;;;;;;;;;;;;;;;;5604966;25;19930;-72
2024/04/16 01:18:18;;;;;;;;;;;;;;;;;;5604541;25;20374;-72
2024/04/16 01:20:44;;;;;;;;;;;;;;;;;;5604928;25;20288;-72
2024/04/16 01:23:10;;;;;;;;;;;;;;;;;;5605051;25;19930;-72
2024/04/16 01:25:36;;;;;;;;;;;;;;;;;;5604299;25;20287;-72
2024/04/16 01:28:02;;;;;;;;;;;;;;;;;;5604918;25;19994;-71
2024/04/16 01:30:28;;;;;;;;;;;;;;;;;;5604956;25;19930;-71
2024/04/16 01:32:54;;;;;;;;;;;;;;;;;;5570761;25;20343;-71
2024/04/16 01:35:20;;;;;;;;;;;;;;;;;;5604730;25;19933;-71
2024/04/16 01:37:46;;;;;;;;;;;;;;;;;;5570795;25;19930;-72
2024/04/16 01:40:12;;;;;;;;;;;;;;;;;;5603815;25;19993;-72
2024/04/16 01:42:38;;;;;;;;;;;;;;;;;;5570765;25;19934;-72
2024/04/16 01:45:04;;;;;;;;;;;;;;;;;;5570645;25;20266;-72
2024/04/16 01:47:30;;;;;;;;;;;;;;;;;;5570232;25;19937;-72
2024/04/16 01:49:56;;;;;;;;;;;;;;;;;;5604189;25;19926;-72
2024/04/16 01:52:22;;;;;;;;;;;;;;;;;;5604145;25;19933;-72
2024/04/16 01:54:47;;;;;;;;;;;;;;;;;;5570067;25;19926;-71
2024/04/16 01:57:13;;;;;;;;;;;;;;;;;;5604065;25;19932;-72
2024/04/16 01:59:39;;;;;;;;;;;;;;;;;;5602499;25;19931;-71
2024/04/16 02:02:05;;;;;;;;;;;;;;;;;;5570032;25;19974;-71
2024/04/16 02:04:31;;;;;;;;;;;;;;;;;;5603908;25;20386;-71
2024/04/16 02:06:57;;;;;;;;;;;;;;;;;;5603814;25;20382;-71
2024/04/16 02:09:23;;;;;;;;;;;;;;;;;;5603822;25;20330;-71
2024/04/16 02:11:49;;;;;;;;;;;;;;;;;;5570410;25;19926;-71
2024/04/16 02:14:15;;;;;;;;;;;;;;;;;;5569812;25;19933;-72
2024/04/16 02:16:41;;;;;;;;;;;;;;;;;;5603619;25;19926;-72
2024/04/16 02:19:07;;;;;;;;;;;;;;;;;;5570304;25;19926;-72
2024/04/16 02:21:33;;;;;;;;;;;;;;;;;;5603333;25;19932;-72
2024/04/16 02:23:59;;;;;;;;;;;;;;;;;;5603632;25;19930;-72
2024/04/16 02:26:25;;;;;;;;;;;;;;;;;;5603697;25;19930;-73
2024/04/16 02:28:51;;;;;;;;;;;;;;;;;;5603186;25;19926;-72
2024/04/16 02:31:17;;;;;;;;;;;;;;;;;;5603552;25;19934;-71
2024/04/16 02:33:42;;;;;;;;;;;;;;;;;;5603510;25;19927;-72
2024/04/16 02:36:09;;;;;;;;;;;;;;;;;;5569397;25;19934;-71
2024/04/16 02:38:35;;;;;;;;;;;;;;;;;;5570310;25;20295;-72
2024/04/16 02:41:01;;;;;;;;;;;;;;;;;;5603660;25;19934;-72
2024/04/16 02:43:27;;;;;;;;;;;;;;;;;;5603113;25;20275;-72
2024/04/16 02:45:53;;;;;;;;;;;;;;;;;;5603688;25;20292;-72
2024/04/16 02:48:19;;;;;;;;;;;;;;;;;;5603597;25;20363;-72
2024/04/16 02:50:45;;;;;;;;;;;;;;;;;;5603137;25;20002;-72
2024/04/16 02:53:11;;;;;;;;;;;;;;;;;;5569989;25;19934;-72
2024/04/16 02:55:37;;;;;;;;;;;;;;;;;;5569675;25;19927;-72
2024/04/16 02:58:03;;;;;;;;;;;;;;;;;;5603041;25;19933;-72
2024/04/16 03:00:30;;;;;;;;;;;;;;;;;;5603495;25;19926;-71
2024/04/16 03:02:56;;;;;;;;;;;;;;;;;;5603642;25;20273;-71
2024/04/16 03:05:22;;;;;;;;;;;;;;;;;;5602983;25;19926;-71
2024/04/16 03:07:48;;;;;;;;;;;;;;;;;;5603241;25;20264;-72
2024/04/16 03:10:15;;;;;;;;;;;;;;;;;;5602928;25;19927;-72
2024/04/16 03:12:41;;;;;;;;;;;;;;;;;;5603071;25;19997;-71
2024/04/16 03:15:08;;;;;;;;;;;;;;;;;;5603168;25;19934;-71
2024/04/16 03:17:34;;;;;;;;;;;;;;;;;;5569088;25;19927;-71
2024/04/16 03:20:00;;;;;;;;;;;;;;;;;;5603034;25;19933;-71
2024/04/16 03:22:26;;;;;;;;;;;;;;;;;;5569606;25;19927;-72
2024/04/16 03:24:52;;;;;;;;;;;;;;;;;;5602545;25;19994;-71
2024/04/16 03:27:18;;;;;;;;;;;;;;;;;;5602973;25;19938;-72
2024/04/16 03:29:44;;;;;;;;;;;;;;;;;;5602925;25;19937;-72
2024/04/16 03:32:10;;;;;;;;;;;;;;;;;;5568994;25;19926;-71
2024/04/16 03:34:36;;;;;;;;;;;;;;;;;;5602846;25;19995;-71
2024/04/16 03:37:01;;;;;;;;;;;;;;;;;;5602327;25;19926;-71
2024/04/16 03:39:27;;;;;;;;;;;;;;;;;;5602092;25;19997;-71
2024/04/16 03:41:53;;;;;;;;;;;;;;;;;;5602569;25;19935;-72
2024/04/16 03:44:19;;;;;;;;;;;;;;;;;;5568801;25;19926;-72
2024/04/16 03:46:45;;;;;;;;;;;;;;;;;;5601720;25;19946;-72
2024/04/16 03:49:11;;;;;;;;;;;;;;;;;;5568681;25;19926;-72
2024/04/16 03:51:37;;;;;;;;;;;;;;;;;;5602068;25;19927;-72
2024/04/16 03:54:03;;;;;;;;;;;;;;;;;;5568210;25;19927;-72
2024/04/16 03:56:29;;;;;;;;;;;;;;;;;;5602010;25;19926;-72
2024/04/16 04:01:40;;;;;;;;;;;;;;;;;;5601736;25;19932;-71
2024/04/16 04:04:06;;;;;;;;;;;;;;;;;;5601920;25;20304;-71
2024/04/16 04:06:32;;;;;;;;;;;;;;;;;;5601751;25;19937;-72
2024/04/16 04:08:58;;;;;;;;;;;;;;;;;;5568338;25;19942;-72
2024/04/16 04:11:23;;;;;;;;;;;;;;;;;;5601884;25;19926;-72
2024/04/16 04:13:49;;;;;;;;;;;;;;;;;;5601310;25;20021;-72
2024/04/16 04:16:16;;;;;;;;;;;;;;;;;;5601609;25;19926;-72
2024/04/16 04:18:42;;;;;;;;;;;;;;;;;;5601686;25;19927;-72
2024/04/16 04:21:08;;;;;;;;;;;;;;;;;;5567729;25;19926;-72
2024/04/16 04:23:34;;;;;;;;;;;;;;;;;;5603794;25;19933;-72
2024/04/16 04:26:00;;;;;;;;;;;;;;;;;;5605487;25;19935;-72
2024/04/16 04:28:26;;;;;;;;;;;;;;;;;;5604889;25;19952;-72
2024/04/16 04:30:52;;;;;;;;;;;;;;;;;;5571842;25;19933;-72
2024/04/16 04:33:17;;;;;;;;;;;;;;;;;;5605429;25;19926;-72
2024/04/16 04:35:43;;;;;;;;;;;;;;;;;;5604593;25;19930;-72
2024/04/16 04:38:09;;;;;;;;;;;;;;;;;;5605320;25;19933;-72
2024/04/16 04:40:35;;;;;;;;;;;;;;;;;;5571728;25;19927;-72
2024/04/16 04:43:01;;;;;;;;;;;;;;;;;;5604840;25;20037;-72
2024/04/16 04:45:27;;;;;;;;;;;;;;;;;;5605076;25;19927;-72
2024/04/16 04:47:53;;;;;;;;;;;;;;;;;;5571750;25;19931;-72
2024/04/16 04:50:19;;;;;;;;;;;;;;;;;;5604673;25;19926;-72
2024/04/16 04:52:45;;;;;;;;;;;;;;;;;;5604973;25;19934;-72
2024/04/16 04:55:11;;;;;;;;;;;;;;;;;;5604951;25;19926;-72
2024/04/16 04:57:38;;;;;;;;;;;;;;;;;;5570906;25;19935;-73
2024/04/16 05:00:05;;;;;;;;;;;;;;;;;;5571348;25;19926;-72
2024/04/16 05:02:31;;;;;;;;;;;;;;;;;;5604792;25;19978;-72
2024/04/16 05:04:57;;;;;;;;;;;;;;;;;;5604569;25;19926;-72
2024/04/16 05:07:23;;;;;;;;;;;;;;;;;;5604824;25;19933;-72
2024/04/16 05:09:51;;;;;;;;;;;;;;;;;;5571471;25;19933;-73
2024/04/16 05:12:17;;;;;;;;;;;;;;;;;;5604676;25;20394;-72
2024/04/16 05:14:43;;;;;;;;;;;;;;;;;;5604454;25;19933;-72
2024/04/16 05:17:09;;;;;;;;;;;;;;;;;;5603976;25;19926;-72
2024/04/16 05:19:35;;;;;;;;;;;;;;;;;;5600241;25;19926;-69
2024/04/16 05:22:01;;;;;;;;;;;;;;;;;;5569197;25;19926;-71
2024/04/16 05:24:27;;;;;;;;;;;;;;;;;;5602754;25;19938;-68
2024/04/16 05:26:53;;;;;;;;;;;;;;;;;;5600526;25;19933;-69
2024/04/16 05:29:19;;;;;;;;;;;;;;;;;;5602149;25;19926;-68
2024/04/16 05:31:46;;;;;;;;;;;;;;;;;;5601520;25;19937;-70
2024/04/16 05:34:12;;;;;;;;;;;;;;;;;;5602588;25;19926;-69
2024/04/16 05:36:38;;;;;;;;;;;;;;;;;;5570164;25;19934;-69
2024/04/16 05:39:04;;;;;;;;;;;;;;;;;;5569592;25;19950;-70
2024/04/16 05:41:30;;;;;;;;;;;;;;;;;;5568975;25;19934;-71
2024/04/16 05:44:40;;;;;;;;;;;;;;;;;;5500404;25;19935;-70
2024/04/16 05:47:06;;;;;;;;;;;;;;;;;;5460558;26;20361;-69
2024/04/16 05:49:32;;;;;;;;;;;;;;;;;;5501499;26;19939;-70
2024/04/16 05:51:59;;;;;;;;;;;;;;;;;;5507582;26;19928;-69
2024/04/16 05:54:26;;;;;;;;;;;;;;;;;;5474912;26;20435;-69
2024/04/16 05:56:52;;;;;;;;;;;;;;;;;;5489696;26;20457;-67
2024/04/16 05:59:18;;;;;;;;;;;;;;;;;;5500444;26;19928;-71
2024/04/16 06:03:48;;;;;;;;;;;;;;;;;;5445852;26;19929;-73
2024/04/16 06:06:14;;;;;;;;;;;;;;;;;;5428405;26;20272;-70
2024/04/16 06:08:40;;;;;;;;;;;;;;;;;;5433233;26;19935;-71
2024/04/16 06:11:06;;;;;;;;;;;;;;;;;;5423440;26;19936;-69
2024/04/16 06:13:32;;;;;;;;;;;;;;;;;;5419523;26;20012;-69
2024/04/16 06:15:58;;;;;;;;;;;;;;;;;;5415790;26;19933;-70
2024/04/16 06:18:25;;;;;;;;;;;;;;;;;;5432777;26;19998;-73
2024/04/16 06:20:51;;;;;;;;;;;;;;;;;;5429451;26;19933;-71
2024/04/16 06:23:17;;;;;;;;;;;;;;;;;;5431630;26;20200;-71
2024/04/16 06:25:43;;;;;;;;;;;;;;;;;;5430979;26;19936;-71
2024/04/16 06:28:09;;;;;;;;;;;;;;;;;;5432096;26;19936;-73
2024/04/16 06:30:35;;;;;;;;;;;;;;;;;;5430399;26;19929;-72
2024/04/16 06:33:01;;;;;;;;;;;;;;;;;;5428819;26;19929;-73
2024/04/16 06:35:27;;;;;;;;;;;;;;;;;;5427655;26;19933;-75
2024/04/16 06:37:53;;;;;;;;;;;;;;;;;;5428941;26;19936;-75
2024/04/16 06:40:19;;;;;;;;;;;;;;;;;;5429301;26;19929;-72
2024/04/16 06:42:45;;;;;;;;;;;;;;;;;;5429192;26;19929;-69
2024/04/16 06:45:11;;;;;;;;;;;;;;;;;;5430391;26;19940;-68
2024/04/16 06:47:37;;;;;;;;;;;;;;;;;;5432436;26;19931;-67
2024/04/16 06:50:03;;;;;;;;;;;;;;;;;;5422635;26;19929;-68
2024/04/16 06:52:29;;;;;;;;;;;;;;;;;;5431461;26;19933;-67
2024/04/16 06:54:56;;;;;;;;;;;;;;;;;;5431493;26;19929;-67
2024/04/16 06:57:22;;;;;;;;;;;;;;;;;;5424875;26;19937;-69
2024/04/16 06:59:48;;;;;;;;;;;;;;;;;;5422435;26;20264;-68
2024/04/16 07:02:14;;;;;;;;;;;;;;;;;;5430673;26;20014;-68
2024/04/16 07:04:40;;;;;;;;;;;;;;;;;;5428773;26;19928;-68
2024/04/16 07:07:05;;;;;;;;;;;;;;;;;;5427934;26;19936;-69
2024/04/16 07:09:31;;;;;;;;;;;;;;;;;;5426430;26;19986;-69
2024/04/16 07:11:57;;;;;;;;;;;;;;;;;;5428742;26;19929;-68
2024/04/16 07:14:23;;;;;;;;;;;;;;;;;;5418900;26;19937;-69
2024/04/16 07:16:49;;;;;;;;;;;;;;;;;;5415034;26;19929;-68
2024/04/16 07:19:15;;;;;;;;;;;;;;;;;;5414330;26;19976;-66
2024/04/16 07:23:13;;;;;;;;;;;;;;;;;;5616048;25;19926;-67
2024/04/16 07:25:43;;;;;;;;;;;;;;;;;;5620863;25;19934;-67
2024/04/16 07:29:58;;;;;;;;;;;;;;;;;;5469079;26;19935;-68
2024/04/16 07:32:24;;;;;;;;;;;;;;;;;;5433951;26;19929;-67
2024/04/16 07:34:50;;;;;;;;;;;;;;;;;;5399461;26;19941;-68
2024/04/16 07:37:16;;;;;;;;;;;;;;;;;;5458414;26;19929;-67
2024/04/16 07:39:42;;;;;;;;;;;;;;;;;;5465866;26;19935;-68
2024/04/16 07:42:08;;;;;;;;;;;;;;;;;;5465045;26;19936;-66
2024/04/16 07:44:35;;;;;;;;;;;;;;;;;;5448053;26;19935;-67
2024/04/16 07:47:01;;;;;;;;;;;;;;;;;;5458909;26;19936;-67
2024/04/16 07:49:27;;;;;;;;;;;;;;;;;;5432992;26;19998;-68
2024/04/16 07:51:53;;;;;;;;;;;;;;;;;;5425476;26;19935;-68
2024/04/16 07:54:19;;;;;;;;;;;;;;;;;;5457797;26;19928;-67
2024/04/16 07:56:45;;;;;;;;;;;;;;;;;;5446767;26;20635;-66
2024/04/16 07:59:11;;;;;;;;;;;;;;;;;;5428502;26;19929;-68
2024/04/16 08:01:37;;;;;;;;;;;;;;;;;;5425781;26;19961;-68
2024/04/16 08:04:03;;;;;;;;;;;;;;;;;;5421886;26;20549;-67
2024/04/16 08:06:29;;;;;;;;;;;;;;;;;;5426001;26;19944;-68
2024/04/16 08:08:56;;;;;;;;;;;;;;;;;;5420986;26;20285;-67
2024/04/16 08:11:22;;;;;;;;;;;;;;;;;;5426663;26;20000;-71
2024/04/16 08:13:50;;;;;;;;;;;;;;;;;;5442692;26;20350;-71
2024/04/16 08:16:16;;;;;;;;;;;;;;;;;;5428198;26;19961;-70
2024/04/16 08:18:42;;;;;;;;;;;;;;;;;;5404434;26;20315;-69
2024/04/16 08:21:08;;;;;;;;;;;;;;;;;;5423917;26;19928;-71
2024/04/16 08:23:34;;;;;;;;;;;;;;;;;;5425652;26;19929;-70
2024/04/16 08:25:59;;;;;;;;;;;;;;;;;;5425633;26;19937;-69
2024/04/16 08:28:25;;;;;;;;;;;;;;;;;;5408506;26;19936;-71
2024/04/16 08:30:53;;;;;;;;;;;;;;;;;;5421693;26;19936;-69
2024/04/16 08:33:20;;;;;;;;;;;;;;;;;;5435814;26;20005;-68
2024/04/16 08:35:46;;;;;;;;;;;;;;;;;;5438582;26;19928;-67
2024/04/16 08:38:12;;;;;;;;;;;;;;;;;;5427236;26;20297;-69
2024/04/16 08:40:38;;;;;;;;;;;;;;;;;;5401596;26;19933;-69
2024/04/16 08:43:03;;;;;;;;;;;;;;;;;;5392299;26;19929;-70
2024/04/16 08:45:29;;;;;;;;;;;;;;;;;;5428746;26;19936;-70
2024/04/16 08:47:55;;;;;;;;;;;;;;;;;;5418814;26;19933;-71
2024/04/16 08:50:22;;;;;;;;;;;;;;;;;;5420623;26;19929;-71
2024/04/16 08:52:48;;;;;;;;;;;;;;;;;;5426667;26;19936;-69
2024/04/16 08:55:14;;;;;;;;;;;;;;;;;;5428991;26;20630;-67
2024/04/16 08:57:40;;;;;;;;;;;;;;;;;;5414133;26;20003;-69
2024/04/16 09:00:06;;;;;;;;;;;;;;;;;;5446507;26;19928;-70
2024/04/16 09:02:32;;;;;;;;;;;;;;;;;;5444624;26;20382;-68
2024/04/16 09:04:59;;;;;;;;;;;;;;;;;;5441412;26;19928;-67
2024/04/16 09:07:24;;;;;;;;;;;;;;;;;;5415250;26;19936;-69
2024/04/16 09:09:50;;;;;;;;;;;;;;;;;;5410518;26;19936;-69
2024/04/16 09:12:16;;;;;;;;;;;;;;;;;;5411289;26;19929;-68
2024/04/16 09:17:19;;;;;;;;;;;;;;;;;;5292804;25;4571435;-68
2024/04/16 09:19:45;;;;;;;;;;;;;;;;;;5460260;26;20456;-66
2024/04/16 09:22:12;;;;;;;;;;;;;;;;;;5432761;26;19928;-66
2024/04/16 09:24:38;;;;;;;;;;;;;;;;;;5466911;26;19932;-67
2024/04/16 09:27:04;;;;;;;;;;;;;;;;;;5466375;26;19948;-66
2024/04/16 09:29:31;;;;;;;;;;;;;;;;;;5469751;26;19940;-68
2024/04/16 09:31:57;;;;;;;;;;;;;;;;;;5486170;26;19935;-68
2024/04/16 09:34:23;;;;;;;;;;;;;;;;;;5436889;26;20257;-68
2024/04/16 09:36:49;;;;;;;;;;;;;;;;;;5465418;26;19931;-69
2024/04/16 09:39:15;;;;;;;;;;;;;;;;;;5501494;26;20048;-67
2024/04/16 09:41:41;;;;;;;;;;;;;;;;;;5466764;26;19928;-69
2024/04/16 09:44:07;;;;;;;;;;;;;;;;;;5465427;26;19936;-70
2024/04/16 09:46:33;;;;;;;;;;;;;;;;;;5463004;26;19937;-70
2024/04/16 09:48:59;;;;;;;;;;;;;;;;;;5455358;26;20266;-69
2024/04/16 09:51:25;;;;;;;;;;;;;;;;;;5439404;26;19941;-68
2024/04/16 09:53:51;;;;;;;;;;;;;;;;;;5464174;26;19957;-68
2024/04/16 09:56:17;;;;;;;;;;;;;;;;;;5445313;26;20021;-67
2024/04/16 09:58:43;;;;;;;;;;;;;;;;;;5456031;26;19935;-68
2024/04/16 10:01:09;;;;;;;;;;;;;;;;;;5500222;26;19927;-69
2024/04/16 10:03:35;;;;;;;;;;;;;;;;;;5503701;26;20000;-71
2024/04/16 10:06:00;;;;;;;;;;;;;;;;;;5472047;26;19936;-68
2024/04/16 10:08:26;;;;;;;;;;;;;;;;;;5494611;26;19929;-68
2024/04/16 10:10:52;;;;;;;;;;;;;;;;;;5435241;26;20314;-66
2024/04/16 10:13:18;;;;;;;;;;;;;;;;;;5474865;26;19936;-69
2024/04/16 10:15:44;;;;;;;;;;;;;;;;;;5489898;26;19928;-67
2024/04/16 10:18:10;;;;;;;;;;;;;;;;;;5445352;26;19940;-68
2024/04/16 10:20:36;;;;;;;;;;;;;;;;;;5463127;26;19961;-68
2024/04/16 10:23:02;;;;;;;;;;;;;;;;;;5468197;26;20572;-67
2024/04/16 10:25:28;;;;;;;;;;;;;;;;;;5455411;26;20363;-68
2024/04/16 10:27:54;;;;;;;;;;;;;;;;;;5454753;26;19957;-68
2024/04/16 10:30:20;;;;;;;;;;;;;;;;;;5449505;26;19928;-69
2024/04/16 10:32:46;;;;;;;;;;;;;;;;;;5447342;26;19929;-71
2024/04/16 10:35:12;;;;;;;;;;;;;;;;;;5454520;26;19932;-69
2024/04/16 10:37:38;;;;;;;;;;;;;;;;;;5471361;26;20293;-69
2024/04/16 10:40:04;;;;;;;;;;;;;;;;;;5458877;26;19928;-69
2024/04/16 10:42:30;;;;;;;;;;;;;;;;;;5467892;26;19940;-68
2024/04/16 10:44:56;;;;;;;;;;;;;;;;;;5452732;26;19928;-68
2024/04/16 10:47:22;;;;;;;;;;;;;;;;;;5423466;26;19928;-68
2024/04/16 10:49:48;;;;;;;;;;;;;;;;;;5422326;26;19992;-68
2024/04/16 10:52:14;;;;;;;;;;;;;;;;;;5437332;26;19940;-68
2024/04/16 10:54:40;;;;;;;;;;;;;;;;;;5478309;26;20281;-69
2024/04/16 10:57:06;;;;;;;;;;;;;;;;;;5454008;26;19956;-69
2024/04/16 10:59:33;;;;;;;;;;;;;;;;;;5421902;26;19935;-69
2024/04/16 11:01:59;;;;;;;;;;;;;;;;;;5466076;26;20416;-68
2024/04/16 11:04:25;;;;;;;;;;;;;;;;;;5432405;26;19936;-68
2024/04/16 11:06:51;;;;;;;;;;;;;;;;;;5457142;26;19929;-68
2024/04/16 11:09:18;;;;;;;;;;;;;;;;;;5454800;26;19939;-67
2024/04/16 11:11:44;;;;;;;;;;;;;;;;;;5472256;26;19928;-67
2024/04/16 11:14:10;;;;;;;;;;;;;;;;;;5439956;26;20016;-67
2024/04/16 11:16:36;;;;;;;;;;;;;;;;;;5421807;26;19928;-68
2024/04/16 11:19:02;;;;;;;;;;;;;;;;;;5483690;26;19932;-68
2024/04/16 11:21:31;;;;;;;;;;;;;;;;;;5488850;26;19943;-66
2024/04/16 11:23:57;;;;;;;;;;;;;;;;;;5467869;26;19929;-67
2024/04/16 11:28:19;;;;;;;;;;;;;;;;;;5619010;25;20262;-66
2024/04/16 11:30:45;;;;;;;;;;;;;;;;;;5619941;25;20032;-66
2024/04/16 11:33:11;;;;;;;;;;;;;;;;;;5620692;25;19934;-65
2024/04/16 11:35:37;;;;;;;;;;;;;;;;;;5620232;25;19937;-66
2024/04/16 11:38:03;;;;;;;;;;;;;;;;;;5619625;25;20355;-66
2024/04/16 11:42:52;;;;;;;;;;;;;;;;;;5571789;25;19927;-65
2024/04/16 11:45:21;;;;;;;;;;;;;;;;;;5578845;25;20371;-65
2024/04/16 11:51:55;;;;;;;;;;;;;;;;;;5620539;25;19950;-66
2024/04/16 11:54:21;;;;;;;;;;;;;;;;;;5621420;25;19933;-66
2024/04/16 11:56:47;;;;;;;;;;;;;;;;;;5621329;25;19926;-66
2024/04/16 11:59:13;;;;;;;;;;;;;;;;;;5620807;25;19934;-66
2024/04/16 12:01:39;;;;;;;;;;;;;;;;;;5587253;25;19993;-66
2024/04/16 12:04:07;;;;;;;;;;;;;;;;;;5621590;25;19933;-73
2024/04/16 12:06:32;;;;;;;;;;;;;;;;;;5586766;25;19962;-67
2024/04/16 12:08:58;;;;;;;;;;;;;;;;;;5621293;25;19926;-68
2024/04/16 12:11:24;;;;;;;;;;;;;;;;;;5621202;25;19926;-67
2024/04/16 12:13:51;;;;;;;;;;;;;;;;;;5611488;25;19938;-69
2024/04/16 12:17:12;;;;;;;;;;;;;;;;;;5620519;25;19934;-67
2024/04/16 12:19:38;;;;;;;;;;;;;;;;;;5619352;25;20266;-67
2024/04/16 12:22:04;;;;;;;;;;;;;;;;;;5620714;25;19933;-68
2024/04/16 12:24:30;;;;;;;;;;;;;;;;;;5619316;25;19937;-68
2024/04/16 12:26:56;;;;;;;;;;;;;;;;;;5620143;25;19938;-68
2024/04/16 12:29:22;;;;;;;;;;;;;;;;;;5621286;25;19975;-67
2024/04/16 12:31:48;;;;;;;;;;;;;;;;;;5586955;25;19950;-67
2024/04/16 12:34:13;;;;;;;;;;;;;;;;;;5620762;25;19926;-74
2024/04/16 12:36:39;;;;;;;;;;;;;;;;;;5619983;25;19927;-74
2024/04/16 12:39:07;;;;;;;;;;;;;;;;;;5586306;25;19926;-75
2024/04/16 12:41:33;;;;;;;;;;;;;;;;;;5620444;25;19926;-75
2024/04/16 12:43:59;;;;;;;;;;;;;;;;;;5619995;25;19926;-75
2024/04/16 12:46:24;;;;;;;;;;;;;;;;;;5617887;25;19934;-76
2024/04/16 12:48:50;;;;;;;;;;;;;;;;;;5616795;25;19933;-74
2024/04/16 12:51:16;;;;;;;;;;;;;;;;;;5618763;25;19927;-75
2024/04/16 12:53:43;;;;;;;;;;;;;;;;;;5620162;25;20564;-74
2024/04/16 12:56:11;;;;;;;;;;;;;;;;;;5619806;25;19930;-75
2024/04/16 12:58:37;;;;;;;;;;;;;;;;;;5621866;25;19963;-76
2024/04/16 13:01:03;;;;;;;;;;;;;;;;;;5586302;25;19926;-75
2024/04/16 13:03:29;;;;;;;;;;;;;;;;;;5619155;25;19926;-77
2024/04/16 13:05:55;;;;;;;;;;;;;;;;;;5585719;25;19926;-75
2024/04/16 13:08:21;;;;;;;;;;;;;;;;;;5586831;25;20118;-76
2024/04/16 13:10:47;;;;;;;;;;;;;;;;;;5587767;25;19938;-76
2024/04/16 13:13:13;;;;;;;;;;;;;;;;;;5621530;25;19926;-75
2024/04/16 13:15:39;;;;;;;;;;;;;;;;;;5586842;25;19926;-76
2024/04/16 13:18:08;;;;;;;;;;;;;;;;;;5587535;25;19933;-76
2024/04/16 13:20:34;;;;;;;;;;;;;;;;;;5621400;25;19927;-75
2024/04/16 13:23:00;;;;;;;;;;;;;;;;;;5620978;25;19926;-75
2024/04/16 13:25:26;;;;;;;;;;;;;;;;;;5618815;25;20411;-75
2024/04/16 13:27:52;;;;;;;;;;;;;;;;;;5605764;25;19927;-73
2024/04/16 13:30:18;;;;;;;;;;;;;;;;;;5600941;25;19926;-73
2024/04/16 13:32:44;;;;;;;;;;;;;;;;;;5601166;25;19933;-73
2024/04/16 13:35:10;;;;;;;;;;;;;;;;;;5601646;25;19934;-73
2024/04/16 13:38:19;;;;;;;;;;;;;;;;;;5618681;25;20270;-75
2024/04/16 13:40:45;;;;;;;;;;;;;;;;;;5621273;25;19927;-74
2024/04/16 13:43:11;;;;;;;;;;;;;;;;;;5622366;25;20274;-74
2024/04/16 13:45:37;;;;;;;;;;;;;;;;;;5622006;25;20275;-75
2024/04/16 13:48:03;;;;;;;;;;;;;;;;;;5622259;25;19934;-75
2024/04/16 13:50:29;;;;;;;;;;;;;;;;;;5621709;25;19927;-76
2024/04/16 13:52:55;;;;;;;;;;;;;;;;;;5622405;25;19966;-76
2024/04/16 13:55:21;;;;;;;;;;;;;;;;;;5622091;25;20414;-75
2024/04/16 13:57:47;;;;;;;;;;;;;;;;;;5587271;25;20347;-74
2024/04/16 14:00:13;;;;;;;;;;;;;;;;;;5621672;25;20367;-74
2024/04/16 14:02:39;;;;;;;;;;;;;;;;;;5621748;25;20280;-74
2024/04/16 14:05:05;;;;;;;;;;;;;;;;;;5620399;25;19934;-74
2024/04/16 14:09:27;;;;;;;;;;;;;;;;;;5582166;25;19927;-75
2024/04/16 14:11:53;;;;;;;;;;;;;;;;;;5535711;25;19945;-73
2024/04/16 14:14:20;;;;;;;;;;;;;;;;;;5579282;25;19927;-73
2024/04/16 14:16:46;;;;;;;;;;;;;;;;;;5549850;25;19947;-72
2024/04/16 14:19:13;;;;;;;;;;;;;;;;;;5550002;25;19998;-73
2024/04/16 14:21:39;;;;;;;;;;;;;;;;;;5583625;25;19934;-73
2024/04/16 14:24:11;;;;;;;;;;;;;;;;;;5581359;25;19942;-74
2024/04/16 14:26:37;;;;;;;;;;;;;;;;;;5578438;25;20420;-75
2024/04/16 14:29:04;;;;;;;;;;;;;;;;;;5579643;25;19951;-73
2024/04/16 14:31:30;;;;;;;;;;;;;;;;;;5570580;25;19934;-72
2024/04/16 14:33:56;;;;;;;;;;;;;;;;;;5571023;25;19936;-73
2024/04/16 14:36:23;;;;;;;;;;;;;;;;;;5579063;25;19927;-73
2024/04/16 14:38:49;;;;;;;;;;;;;;;;;;5545713;25;20331;-73
2024/04/16 14:43:16;;;;;;;;;;;;;;;;;;5620627;25;19927;-75
2024/04/16 14:45:42;;;;;;;;;;;;;;;;;;5587463;25;20298;-73
2024/04/16 14:48:08;;;;;;;;;;;;;;;;;;5620000;25;19948;-73
2024/04/16 14:50:34;;;;;;;;;;;;;;;;;;5586584;25;19927;-74
2024/04/16 14:53:01;;;;;;;;;;;;;;;;;;5619241;25;19994;-74
2024/04/16 14:55:26;;;;;;;;;;;;;;;;;;5620400;25;19934;-74
2024/04/16 14:57:52;;;;;;;;;;;;;;;;;;5621927;25;19934;-73
2024/04/16 15:00:18;;;;;;;;;;;;;;;;;;5621866;25;19926;-73
2024/04/16 15:02:44;;;;;;;;;;;;;;;;;;5587628;25;19930;-73
2024/04/16 15:05:10;;;;;;;;;;;;;;;;;;5621941;25;19994;-73
2024/04/16 15:07:36;;;;;;;;;;;;;;;;;;5618318;25;19927;-73
2024/04/16 15:10:02;;;;;;;;;;;;;;;;;;5617573;25;20387;-73
2024/04/16 15:12:28;;;;;;;;;;;;;;;;;;5617904;25;19934;-73
2024/04/16 15:14:54;;;;;;;;;;;;;;;;;;5583602;25;19958;-73
2024/04/16 15:17:20;;;;;;;;;;;;;;;;;;5617473;25;19926;-73
2024/04/16 15:19:46;;;;;;;;;;;;;;;;;;5617909;25;19933;-72
2024/04/16 15:22:12;;;;;;;;;;;;;;;;;;5619290;25;19954;-73
2024/04/16 15:24:38;;;;;;;;;;;;;;;;;;5587760;25;19952;-74
2024/04/16 15:27:04;;;;;;;;;;;;;;;;;;5620644;25;19926;-74
2024/04/16 15:29:30;;;;;;;;;;;;;;;;;;5620906;25;19934;-74
2024/04/16 15:31:56;;;;;;;;;;;;;;;;;;5587615;25;19997;-75
2024/04/16 15:34:22;;;;;;;;;;;;;;;;;;5621346;25;19926;-74
2024/04/16 15:36:48;;;;;;;;;;;;;;;;;;5620809;25;19993;-74
2024/04/16 15:39:13;;;;;;;;;;;;;;;;;;5620917;25;20366;-74
2024/04/16 15:41:39;;;;;;;;;;;;;;;;;;5620619;25;20262;-74
2024/04/16 15:44:05;;;;;;;;;;;;;;;;;;5620552;25;19932;-74
2024/04/16 15:46:32;;;;;;;;;;;;;;;;;;5619797;25;19931;-73
2024/04/16 15:48:59;;;;;;;;;;;;;;;;;;5621009;25;19938;-74
2024/04/16 15:51:25;;;;;;;;;;;;;;;;;;5586599;25;20311;-74
2024/04/16 15:53:51;;;;;;;;;;;;;;;;;;5609451;25;19926;-74
2024/04/16 15:56:16;;;;;;;;;;;;;;;;;;5604270;25;20270;-74
2024/04/16 15:58:44;;;;;;;;;;;;;;;;;;5570267;25;20254;-74
2024/04/16 16:01:11;;;;;;;;;;;;;;;;;;5604029;25;19974;-74
2024/04/16 16:03:37;;;;;;;;;;;;;;;;;;5604100;25;19970;-73
2024/04/16 16:06:03;;;;;;;;;;;;;;;;;;5603659;25;19926;-74
2024/04/16 16:08:28;;;;;;;;;;;;;;;;;;5570480;25;19927;-74
2024/04/16 16:10:55;;;;;;;;;;;;;;;;;;5603907;25;20365;-74
2024/04/16 16:13:20;;;;;;;;;;;;;;;;;;5603559;25;19992;-74
2024/04/16 16:15:46;;;;;;;;;;;;;;;;;;5603466;25;20262;-74
2024/04/16 16:18:12;;;;;;;;;;;;;;;;;;5603137;25;19926;-74
2024/04/16 16:20:38;;;;;;;;;;;;;;;;;;5603542;25;19937;-74
2024/04/16 16:23:04;;;;;;;;;;;;;;;;;;5603281;25;19930;-74
2024/04/16 16:25:30;;;;;;;;;;;;;;;;;;5602873;25;19926;-74
2024/04/16 16:31:48;;;;;;;;;;;;;;;;;;5582720;25;19933;-74
2024/04/16 16:34:14;;;;;;;;;;;;;;;;;;5582594;25;20275;-74
2024/04/16 16:36:40;;;;;;;;;;;;;;;;;;5583023;25;19939;-74
2024/04/16 16:39:43;;;;;;;;;;;;;;;;;;5582700;25;19933;-74
2024/04/16 16:42:09;;;;;;;;;;;;;;;;;;5583199;25;20064;-74
2024/04/16 16:44:35;;;;;;;;;;;;;;;;;;5581289;25;20248;-74
2024/04/16 16:47:01;;;;;;;;;;;;;;;;;;5580811;25;20319;-75
2024/04/16 16:49:27;;;;;;;;;;;;;;;;;;5583021;25;19942;-74
2024/04/16 16:51:53;;;;;;;;;;;;;;;;;;5583292;25;19927;-74
2024/04/16 16:54:19;;;;;;;;;;;;;;;;;;5582695;25;19926;-75
2024/04/16 16:56:45;;;;;;;;;;;;;;;;;;5580976;25;19937;-75
2024/04/16 16:59:11;;;;;;;;;;;;;;;;;;5582953;25;19978;-74
2024/04/16 17:01:37;;;;;;;;;;;;;;;;;;5582539;25;20379;-74
2024/04/16 17:04:03;;;;;;;;;;;;;;;;;;5582693;25;20270;-75
2024/04/16 17:06:29;;;;;;;;;;;;;;;;;;5582854;25;19927;-75